CYDP/YDP METAR and TAF weather

Enter ICAO airport designator
Station Type Date Time Source
CYDP METAR 2019/08/24 20:00 UTC NOAA

CYDP 242000Z VRB03KT 15SM FEW045 BKN080 BKN250 09/06 A3000 RMK SC2AC4CI1 SLP161


Station Type Date Time Source
CYDP Decoded METAR 2019/08/24 20:00 UTC NOAA

Station name not available
Aug 24, 2019 - 04:00 PM EDT / 2019.08.24 2000 UTC
Wind: Variable at 3 MPH (3 KT):0
Visibility: 15 mile(s):0
Sky conditions: mostly cloudy
Temperature: 48 F (9 C)
Dew Point: 42 F (6 C)
Relative Humidity: 81%
Pressure (altimeter): 30 in. Hg (1015 hPa)
ob: CYDP 242000Z VRB03KT 15SM FEW045 BKN080 BKN250 09/06 A3000 RMK SC2AC4CI1 SLP161
cycle: 20

Station Type Date Time Source
CYDP TAF 2019/08/24 20:00 UTC NOAA

TAF CYDP 241942Z 2420/2423 VRB03KT P6SM FEW050
BECMG 2420/2422 27010KT
RMK NXT FCST WILL BE ISSUED AT 250945Z

Example: see airport list